createdAt,value
2023-06-29T00:01:27.894Z,58.52
2023-06-29T00:04:07.665Z,58.75
2023-06-29T00:06:47.028Z,59.06
2023-06-29T00:09:26.345Z,59.22
2023-06-29T00:12:05.666Z,59.33
2023-06-29T00:14:50.045Z,59.41
2023-06-29T00:17:29.423Z,59.50
2023-06-29T00:20:11.927Z,59.56
2023-06-29T00:22:51.439Z,59.55
2023-06-29T00:25:31.294Z,59.67
2023-06-29T00:28:11.359Z,59.52
2023-06-29T00:30:56.063Z,59.36
2023-06-29T00:33:35.482Z,59.52
2023-06-29T00:36:14.887Z,60.36
2023-06-29T00:38:55.013Z,60.70
2023-06-29T00:41:34.482Z,60.99
2023-06-29T00:44:13.812Z,61.15
2023-06-29T00:47:01.058Z,61.20
2023-06-29T00:49:40.883Z,61.40
2023-06-29T00:52:20.695Z,61.34
2023-06-29T00:55:03.525Z,61.57
2023-06-29T00:57:43.060Z,61.80
2023-06-29T01:00:23.405Z,61.82
2023-06-29T01:03:07.966Z,61.82
2023-06-29T01:05:47.708Z,61.96
2023-06-29T01:08:33.785Z,62.09
2023-06-29T01:11:14.633Z,62.14
2023-06-29T01:13:55.932Z,62.07
2023-06-29T01:16:38.295Z,62.23
2023-06-29T01:19:30.660Z,62.31
2023-06-29T01:22:15.896Z,62.66
2023-06-29T01:25:01.642Z,62.78
2023-06-29T01:27:45.606Z,62.67
2023-06-29T01:30:25.790Z,62.93
2023-06-29T01:33:05.162Z,63.05
2023-06-29T01:35:44.857Z,62.83
2023-06-29T01:38:34.924Z,62.85
2023-06-29T01:41:24.357Z,62.73
2023-06-29T01:44:05.440Z,63.08
2023-06-29T01:46:45.575Z,63.22
2023-06-29T01:49:25.205Z,63.24
2023-06-29T01:52:04.651Z,63.08
2023-06-29T01:54:44.306Z,63.32
2023-06-29T01:57:28.729Z,63.39
2023-06-29T02:00:08.399Z,63.47
2023-06-29T02:02:47.805Z,63.55
2023-06-29T02:05:27.273Z,63.68
2023-06-29T02:08:06.612Z,63.64
2023-06-29T02:10:45.955Z,63.71
2023-06-29T02:13:30.354Z,63.95
2023-06-29T02:16:09.809Z,63.96
2023-06-29T02:18:49.166Z,63.94
2023-06-29T02:21:28.457Z,63.77
2023-06-29T02:24:07.782Z,63.63
2023-06-29T02:26:47.089Z,63.89
2023-06-29T02:29:31.956Z,64.28
2023-06-29T02:32:12.036Z,64.41
2023-06-29T02:34:51.319Z,64.78
2023-06-29T02:37:30.654Z,64.97
2023-06-29T02:40:10.207Z,65.01
2023-06-29T02:42:49.965Z,65.02
2023-06-29T02:45:34.369Z,64.95
2023-06-29T02:48:14.119Z,65.03
2023-06-29T02:50:53.525Z,65.07
2023-06-29T02:53:32.886Z,65.18
2023-06-29T02:56:12.588Z,65.42
2023-06-29T02:58:51.930Z,65.38
2023-06-29T03:01:36.425Z,65.44
2023-06-29T03:04:15.768Z,65.38
2023-06-29T03:06:55.152Z,64.98
2023-06-29T03:09:34.479Z,65.06
2023-06-29T03:12:15.677Z,65.27
2023-06-29T03:14:55.017Z,64.96
2023-06-29T03:17:39.461Z,65.57
2023-06-29T03:20:20.917Z,65.70
2023-06-29T03:23:00.256Z,65.86
2023-06-29T03:25:39.704Z,65.82
2023-06-29T03:28:19.014Z,65.89
2023-06-29T03:30:58.448Z,66.09
2023-06-29T03:33:42.850Z,66.14
2023-06-29T03:36:22.183Z,66.28
2023-06-29T03:39:01.522Z,66.55
2023-06-29T03:41:40.903Z,66.52
2023-06-29T03:44:20.251Z,66.68
2023-06-29T03:47:00.137Z,66.34
2023-06-29T03:49:44.722Z,66.48
2023-06-29T03:52:24.076Z,66.44
2023-06-29T03:55:03.400Z,66.29
2023-06-29T03:57:42.688Z,66.75
2023-06-29T04:00:22.821Z,66.84
2023-06-29T04:03:02.214Z,66.68
2023-06-29T04:05:47.235Z,66.77
2023-06-29T04:08:26.565Z,66.79
2023-06-29T04:11:05.882Z,66.71
2023-06-29T04:13:45.180Z,66.68
2023-06-29T04:16:24.721Z,66.95
2023-06-29T04:19:04.141Z,67.04
2023-06-29T04:21:48.539Z,67.13
2023-06-29T04:24:27.848Z,67.41
2023-06-29T04:27:07.942Z,67.76
2023-06-29T04:29:47.300Z,68.36
2023-06-29T04:32:26.762Z,68.56
2023-06-29T04:35:06.323Z,68.51
2023-06-29T04:37:50.785Z,68.51
2023-06-29T04:40:30.406Z,68.26
2023-06-29T04:43:09.794Z,68.28
2023-06-29T04:45:49.076Z,68.23
2023-06-29T04:48:31.192Z,68.27
2023-06-29T04:51:10.623Z,68.33
2023-06-29T04:53:55.020Z,68.53
2023-06-29T04:56:34.378Z,68.30
2023-06-29T04:59:13.694Z,68.19
2023-06-29T05:01:53.233Z,67.55
2023-06-29T05:04:32.708Z,67.36
2023-06-29T05:07:12.629Z,67.35
2023-06-29T05:09:56.987Z,67.38
2023-06-29T05:12:36.285Z,66.95
2023-06-29T05:15:17.811Z,66.89
2023-06-29T05:17:57.212Z,66.96
2023-06-29T05:20:37.320Z,66.98
2023-06-29T05:23:16.766Z,66.82
2023-06-29T05:26:01.229Z,66.84
2023-06-29T05:28:42.821Z,66.99
2023-06-29T05:31:29.124Z,66.98
2023-06-29T05:34:08.470Z,66.76
2023-06-29T05:36:47.841Z,66.65
2023-06-29T05:39:27.290Z,66.66
2023-06-29T05:42:12.188Z,66.82
2023-06-29T05:44:51.455Z,66.64
2023-06-29T05:47:30.874Z,67.00
2023-06-29T05:50:10.425Z,66.83
2023-06-29T05:52:51.392Z,66.28
2023-06-29T05:55:31.142Z,65.96
2023-06-29T05:58:15.625Z,65.53
2023-06-29T06:00:54.986Z,65.03
2023-06-29T06:03:35.452Z,64.83
2023-06-29T06:06:14.975Z,64.86
2023-06-29T06:08:54.455Z,64.79
2023-06-29T06:11:33.813Z,64.64
2023-06-29T06:14:18.182Z,64.94
2023-06-29T06:16:57.515Z,64.69
2023-06-29T06:19:36.911Z,63.88
2023-06-29T06:22:16.337Z,64.27
2023-06-29T06:24:55.771Z,63.72
2023-06-29T06:27:35.110Z,64.30
2023-06-29T06:30:20.203Z,63.70
2023-06-29T06:32:59.648Z,63.17
2023-06-29T06:35:39.943Z,62.74
2023-06-29T06:38:19.835Z,62.48
2023-06-29T06:40:59.528Z,62.60
2023-06-29T06:43:38.997Z,62.29
2023-06-29T06:46:23.461Z,62.38
2023-06-29T06:49:02.809Z,61.98
2023-06-29T06:51:42.503Z,61.51
2023-06-29T06:54:22.803Z,61.07
2023-06-29T06:57:02.317Z,61.12
2023-06-29T06:59:42.620Z,60.68
2023-06-29T07:02:27.211Z,60.97
2023-06-29T07:05:07.509Z,60.90
2023-06-29T07:07:48.485Z,59.80
2023-06-29T07:10:28.169Z,57.84
2023-06-29T07:13:07.535Z,57.84
2023-06-29T07:15:46.871Z,57.90
2023-06-29T07:18:31.302Z,58.53
2023-06-29T07:26:37.313Z,56.42
2023-06-29T07:29:16.648Z,54.82
2023-06-29T07:31:55.946Z,54.78
2023-06-29T07:34:40.391Z,54.45
2023-06-29T07:37:19.705Z,53.99
2023-06-29T07:39:59.014Z,54.79
2023-06-29T07:42:39.857Z,54.12
2023-06-29T07:45:20.976Z,53.49
2023-06-29T07:48:00.416Z,53.16
2023-06-29T07:50:44.862Z,52.90
2023-06-29T07:53:24.176Z,52.68
2023-06-29T07:56:03.585Z,52.71
2023-06-29T07:58:43.117Z,52.51
2023-06-29T08:01:22.532Z,52.57
2023-06-29T08:04:03.528Z,51.73
2023-06-29T08:06:51.762Z,51.62
2023-06-29T08:09:31.570Z,50.63
2023-06-29T08:12:11.383Z,50.62
2023-06-29T08:14:50.695Z,49.43
2023-06-29T08:17:30.074Z,48.68
2023-06-29T08:20:13.084Z,48.38
2023-06-29T08:22:58.111Z,48.69
2023-06-29T08:25:37.516Z,47.57
2023-06-29T08:28:16.921Z,47.79
2023-06-29T08:30:56.272Z,46.76
2023-06-29T08:33:35.613Z,46.20
2023-06-29T08:36:14.943Z,45.96
2023-06-29T08:38:59.309Z,45.69
2023-06-29T08:41:38.682Z,44.96
2023-06-29T08:44:18.116Z,44.19
2023-06-29T08:46:57.727Z,44.17
2023-06-29T08:49:39.564Z,43.79
2023-06-29T08:52:24.829Z,43.43
2023-06-29T08:55:11.137Z,42.35
2023-06-29T08:57:50.954Z,42.17
2023-06-29T09:00:31.062Z,41.68
2023-06-29T09:03:12.482Z,40.84
2023-06-29T09:05:53.086Z,40.16
2023-06-29T09:08:32.498Z,39.78
2023-06-29T09:11:17.440Z,39.51
2023-06-29T09:13:57.728Z,39.80
2023-06-29T09:16:37.389Z,38.59
2023-06-29T09:19:16.891Z,38.49
2023-06-29T09:21:56.531Z,39.04
2023-06-29T09:24:43.754Z,38.33
2023-06-29T09:27:37.607Z,37.52
2023-06-29T09:30:25.777Z,37.13
2023-06-29T09:33:05.140Z,37.59
2023-06-29T09:35:46.462Z,36.68
2023-06-29T09:38:26.152Z,36.23
2023-06-29T09:41:05.854Z,36.11
2023-06-29T09:43:51.497Z,35.35
2023-06-29T09:46:34.353Z,35.44
2023-06-29T09:49:16.418Z,34.76
2023-06-29T09:51:56.746Z,35.59
2023-06-29T09:54:36.168Z,35.22
2023-06-29T09:57:17.270Z,34.47
2023-06-29T10:00:02.916Z,35.59
2023-06-29T10:02:42.391Z,35.58
2023-06-29T10:05:22.898Z,33.97
2023-06-29T10:08:02.895Z,34.35
2023-06-29T10:10:45.045Z,34.48
2023-06-29T10:13:26.894Z,35.20
2023-06-29T10:16:15.732Z,35.65
2023-06-29T10:18:59.124Z,35.46
2023-06-29T10:21:38.595Z,34.50
2023-06-29T10:24:22.321Z,35.76
2023-06-29T10:27:04.186Z,35.15
2023-06-29T10:29:52.906Z,34.27
2023-06-29T10:32:44.934Z,34.62
2023-06-29T10:35:26.814Z,34.30
2023-06-29T10:38:09.109Z,33.55
2023-06-29T10:40:55.228Z,33.64
2023-06-29T10:46:23.843Z,32.30
2023-06-29T10:49:14.125Z,32.31
2023-06-29T10:51:57.883Z,32.12
2023-06-29T10:54:37.822Z,32.00
2023-06-29T10:57:17.907Z,31.50
2023-06-29T10:59:57.231Z,30.89
2023-06-29T11:02:36.887Z,31.05
2023-06-29T11:05:26.260Z,31.10
2023-06-29T11:08:05.707Z,31.06
2023-06-29T11:10:47.265Z,31.19
2023-06-29T11:13:28.320Z,32.21
2023-06-29T11:16:07.782Z,32.17
2023-06-29T11:18:56.103Z,30.96
2023-06-29T11:21:40.561Z,31.18
2023-06-29T11:24:23.721Z,32.09
2023-06-29T11:27:03.662Z,32.03
2023-06-29T11:29:43.008Z,31.86
2023-06-29T11:32:24.211Z,30.06
2023-06-29T11:35:07.288Z,29.82
2023-06-29T11:37:51.695Z,30.13
2023-06-29T11:40:32.918Z,29.97
2023-06-29T11:43:12.385Z,30.01
2023-06-29T11:45:52.917Z,29.48
2023-06-29T11:48:32.288Z,28.77
2023-06-29T11:51:12.143Z,29.03
2023-06-29T11:53:56.860Z,29.01
2023-06-29T11:56:43.032Z,28.76
2023-06-29T11:59:22.786Z,29.23
2023-06-29T12:02:02.554Z,29.63
2023-06-29T12:04:42.014Z,30.04
2023-06-29T12:07:21.588Z,30.03
2023-06-29T12:10:10.283Z,30.46
2023-06-29T12:12:57.944Z,31.15
2023-06-29T12:15:40.248Z,30.86
2023-06-29T12:18:21.718Z,30.81
2023-06-29T12:21:01.549Z,30.90
2023-06-29T12:23:41.023Z,31.87
2023-06-29T12:26:27.441Z,31.60
2023-06-29T12:29:06.828Z,31.46
2023-06-29T12:31:46.382Z,32.38
2023-06-29T12:34:25.990Z,32.94
2023-06-29T12:37:05.312Z,32.17
2023-06-29T12:39:44.631Z,32.60
2023-06-29T12:42:30.586Z,32.25
2023-06-29T12:45:10.966Z,32.48
2023-06-29T12:47:50.252Z,33.12
2023-06-29T12:50:29.641Z,33.54
2023-06-29T12:53:08.976Z,33.60
2023-06-29T12:55:48.618Z,33.97
2023-06-29T12:58:34.545Z,34.11
2023-06-29T13:01:14.020Z,34.57
2023-06-29T13:03:53.614Z,34.92
2023-06-29T13:06:38.020Z,35.12
2023-06-29T13:09:17.393Z,35.35
2023-06-29T13:11:56.771Z,35.24
2023-06-29T13:14:41.170Z,37.03
2023-06-29T13:17:20.943Z,39.27
2023-06-29T13:20:00.437Z,39.50
2023-06-29T13:22:40.216Z,39.17
2023-06-29T13:25:19.993Z,38.43
2023-06-29T13:27:59.391Z,38.63
2023-06-29T13:30:43.768Z,38.65
2023-06-29T13:33:24.227Z,38.48
2023-06-29T13:36:03.574Z,38.74
2023-06-29T13:38:42.901Z,38.87
2023-06-29T13:41:22.285Z,39.65
2023-06-29T13:44:01.611Z,40.31
2023-06-29T13:46:46.833Z,40.51
2023-06-29T13:49:26.382Z,41.98
2023-06-29T13:52:05.772Z,42.03
2023-06-29T13:54:45.139Z,41.51
2023-06-29T13:57:25.641Z,41.91
2023-06-29T14:00:05.152Z,43.82
2023-06-29T14:02:51.340Z,44.46
2023-06-29T14:05:32.753Z,46.81
2023-06-29T14:08:13.688Z,46.51
2023-06-29T14:10:53.019Z,47.67
2023-06-29T14:13:33.281Z,47.42
2023-06-29T14:16:13.641Z,48.09
2023-06-29T14:18:58.310Z,47.36
2023-06-29T14:21:38.140Z,47.43
2023-06-29T14:24:17.709Z,48.09
2023-06-29T14:26:57.971Z,47.66
2023-06-29T14:29:37.358Z,46.03
2023-06-29T14:32:16.718Z,43.76
2023-06-29T14:35:01.155Z,42.55
2023-06-29T14:37:40.470Z,41.13
2023-06-29T14:40:20.561Z,40.36
2023-06-29T14:42:59.918Z,39.89
2023-06-29T14:45:39.295Z,40.04
2023-06-29T14:48:19.086Z,40.21
2023-06-29T14:51:03.555Z,40.64
2023-06-29T14:53:43.046Z,40.81
2023-06-29T14:56:22.472Z,41.21
2023-06-29T14:59:01.890Z,41.47
2023-06-29T15:01:41.748Z,41.62
2023-06-29T15:04:21.111Z,42.33
2023-06-29T15:07:05.499Z,42.19
2023-06-29T15:09:45.293Z,41.85
2023-06-29T15:12:26.338Z,41.59
2023-06-29T15:15:05.869Z,42.02
2023-06-29T15:17:45.238Z,42.21
2023-06-29T15:20:24.668Z,42.35
2023-06-29T15:23:09.081Z,42.71
2023-06-29T15:25:48.629Z,43.00
2023-06-29T15:28:28.197Z,43.56
2023-06-29T15:31:07.859Z,43.80
2023-06-29T15:33:47.274Z,43.60
2023-06-29T15:36:26.694Z,43.98
2023-06-29T15:39:11.248Z,43.90
2023-06-29T15:41:51.385Z,43.61
2023-06-29T15:44:30.825Z,43.80
2023-06-29T15:47:10.274Z,43.26
2023-06-29T15:49:49.823Z,43.35
2023-06-29T15:52:29.953Z,44.22
2023-06-29T15:55:15.432Z,43.47
2023-06-29T15:57:55.850Z,44.04
2023-06-29T16:00:39.629Z,44.31
2023-06-29T16:03:19.046Z,44.28
2023-06-29T16:05:58.474Z,44.24
2023-06-29T16:08:37.875Z,44.40
2023-06-29T16:11:22.335Z,43.99
2023-06-29T16:14:02.971Z,44.12
2023-06-29T16:16:42.336Z,44.05
2023-06-29T16:19:21.801Z,43.89
2023-06-29T16:22:01.193Z,44.90
2023-06-29T16:24:41.448Z,46.20
2023-06-29T16:27:25.848Z,46.79
2023-06-29T16:30:05.309Z,47.13
2023-06-29T16:32:44.769Z,47.63
2023-06-29T16:35:24.430Z,47.99
2023-06-29T16:38:03.732Z,48.97
2023-06-29T16:40:43.062Z,49.71
2023-06-29T16:43:27.464Z,50.54
2023-06-29T16:46:06.882Z,51.51
2023-06-29T16:48:46.329Z,51.52
2023-06-29T16:51:25.603Z,51.87
2023-06-29T16:54:06.272Z,50.92
2023-06-29T16:56:45.863Z,51.25
2023-06-29T16:59:31.077Z,52.02
2023-06-29T17:02:10.643Z,51.57
2023-06-29T17:04:50.092Z,51.44
2023-06-29T17:07:29.450Z,51.81
2023-06-29T17:10:08.790Z,51.87
2023-06-29T17:12:48.271Z,51.99
2023-06-29T17:15:32.707Z,51.60
2023-06-29T17:18:12.060Z,51.21
2023-06-29T17:20:51.457Z,51.68
2023-06-29T17:23:30.826Z,52.49
2023-06-29T17:26:11.786Z,52.16
2023-06-29T17:28:51.098Z,53.22
2023-06-29T17:31:35.504Z,54.20
2023-06-29T17:34:14.926Z,54.34
2023-06-29T17:36:54.299Z,54.17
2023-06-29T17:39:33.686Z,53.94
2023-06-29T17:42:13.920Z,54.49
2023-06-29T17:44:53.632Z,54.44
2023-06-29T17:47:38.093Z,54.85
2023-06-29T17:50:18.121Z,54.24
2023-06-29T17:52:57.451Z,54.39
2023-06-29T17:55:36.774Z,54.29
2023-06-29T17:58:16.080Z,53.95
2023-06-29T18:00:55.413Z,53.95
2023-06-29T18:03:40.005Z,53.81
2023-06-29T18:06:20.584Z,53.60
2023-06-29T18:09:00.558Z,52.97
2023-06-29T18:11:39.930Z,53.66
2023-06-29T18:14:19.808Z,53.56
2023-06-29T18:16:59.215Z,53.58
2023-06-29T18:19:43.564Z,54.28
2023-06-29T18:22:23.188Z,55.69
2023-06-29T18:25:02.528Z,55.89
2023-06-29T18:27:41.977Z,55.77
2023-06-29T18:30:21.873Z,55.16
2023-06-29T18:33:01.246Z,54.99
2023-06-29T18:35:45.968Z,55.46
2023-06-29T18:38:25.619Z,55.87
2023-06-29T18:41:10.537Z,56.32
2023-06-29T18:43:49.858Z,56.62
2023-06-29T18:46:29.197Z,57.10
2023-06-29T18:49:08.625Z,57.44
2023-06-29T18:51:53.034Z,56.66
2023-06-29T18:54:32.380Z,55.42
2023-06-29T18:57:13.907Z,54.64
2023-06-29T18:59:53.259Z,54.22
2023-06-29T19:02:33.298Z,54.06
2023-06-29T19:05:13.394Z,54.39
2023-06-29T19:07:58.576Z,54.79
2023-06-29T19:10:37.978Z,54.94
2023-06-29T19:13:17.317Z,55.41
2023-06-29T19:15:56.756Z,55.92
2023-06-29T19:18:36.414Z,56.12
2023-06-29T19:21:15.786Z,57.02
2023-06-29T19:24:00.169Z,58.12
2023-06-29T19:26:39.650Z,58.90
2023-06-29T19:29:19.346Z,59.54
2023-06-29T19:31:58.700Z,59.80
2023-06-29T19:34:38.523Z,60.21
2023-06-29T19:37:17.851Z,60.46
2023-06-29T19:40:02.241Z,60.35
2023-06-29T19:42:41.632Z,60.40
2023-06-29T19:45:20.992Z,59.55
2023-06-29T19:48:00.456Z,59.03
2023-06-29T19:50:39.804Z,59.24
2023-06-29T19:53:19.152Z,59.69
2023-06-29T19:56:04.571Z,59.76
2023-06-29T19:58:43.903Z,59.57
2023-06-29T20:01:23.276Z,59.34
2023-06-29T20:04:02.791Z,59.39
2023-06-29T20:06:42.151Z,59.70
2023-06-29T20:09:21.463Z,59.67
2023-06-29T20:12:05.917Z,59.86
2023-06-29T20:14:45.519Z,60.22
2023-06-29T20:17:24.940Z,60.34
2023-06-29T20:20:05.052Z,60.79
2023-06-29T20:22:44.394Z,61.16
2023-06-29T20:25:23.960Z,61.34
2023-06-29T20:28:08.355Z,61.49
2023-06-29T20:30:48.256Z,61.27
2023-06-29T20:33:27.555Z,61.30
2023-06-29T20:36:07.009Z,61.35
2023-06-29T20:38:46.351Z,61.71
2023-06-29T20:41:25.770Z,61.95
2023-06-29T20:44:16.043Z,62.10
2023-06-29T20:46:55.544Z,62.40
2023-06-29T20:49:35.464Z,62.38
2023-06-29T20:52:15.439Z,62.54
2023-06-29T20:54:54.756Z,62.67
2023-06-29T20:57:39.047Z,62.83
2023-06-29T21:00:24.577Z,63.25
2023-06-29T21:03:03.927Z,63.79
2023-06-29T21:05:43.254Z,63.99
2023-06-29T21:08:22.554Z,64.68
2023-06-29T21:11:01.881Z,64.99
2023-06-29T21:13:41.764Z,65.02
2023-06-29T21:16:27.113Z,65.19
2023-06-29T21:19:07.056Z,65.26
2023-06-29T21:21:47.447Z,65.00
2023-06-29T21:24:27.334Z,65.19
2023-06-29T21:27:06.847Z,65.09
2023-06-29T21:29:48.006Z,64.78
2023-06-29T21:32:32.921Z,64.49
2023-06-29T21:35:13.653Z,64.61
2023-06-29T21:37:53.532Z,64.69
2023-06-29T21:40:32.855Z,64.85
2023-06-29T21:43:12.219Z,64.60
2023-06-29T21:45:52.170Z,64.49
2023-06-29T21:48:38.183Z,64.80
2023-06-29T21:51:17.560Z,64.94
2023-06-29T21:53:56.831Z,64.94
2023-06-29T21:56:36.241Z,65.10
2023-06-29T21:59:15.647Z,64.99
2023-06-29T22:01:55.911Z,65.28
2023-06-29T22:04:40.323Z,65.53
2023-06-29T22:07:19.799Z,65.77
2023-06-29T22:09:59.158Z,65.96
2023-06-29T22:12:40.808Z,66.02
2023-06-29T22:15:21.333Z,66.01
2023-06-29T22:18:00.704Z,65.88
2023-06-29T22:20:45.177Z,65.92
2023-06-29T22:23:24.649Z,66.09
2023-06-29T22:26:04.071Z,66.26
2023-06-29T22:28:43.390Z,66.07
2023-06-29T22:31:22.898Z,66.08
2023-06-29T22:34:02.311Z,66.08
2023-06-29T22:36:46.699Z,66.15
2023-06-29T22:39:26.021Z,66.42
2023-06-29T22:42:05.385Z,66.22
2023-06-29T22:44:44.668Z,66.25
2023-06-29T22:47:24.043Z,66.20
2023-06-29T22:50:03.377Z,66.21
2023-06-29T22:52:47.779Z,66.15
2023-06-29T22:55:27.336Z,66.19
2023-06-29T22:58:06.605Z,66.37
2023-06-29T23:00:45.893Z,66.47
2023-06-29T23:03:25.347Z,66.47
2023-06-29T23:06:04.929Z,66.73
2023-06-29T23:08:49.367Z,66.74
2023-06-29T23:11:33.519Z,66.64
2023-06-29T23:14:17.550Z,66.44
2023-06-29T23:16:56.840Z,66.78
2023-06-29T23:19:36.294Z,66.81
2023-06-29T23:22:15.585Z,66.52
2023-06-29T23:25:00.240Z,66.72
2023-06-29T23:27:43.802Z,66.98
2023-06-29T23:30:23.258Z,67.20
2023-06-29T23:33:02.720Z,67.59
2023-06-29T23:35:42.052Z,67.67
2023-06-29T23:38:21.453Z,67.76
2023-06-29T23:41:05.870Z,67.78
2023-06-29T23:43:45.409Z,67.71
2023-06-29T23:46:27.789Z,67.87
2023-06-29T23:49:08.695Z,67.97
2023-06-29T23:51:49.870Z,67.87
2023-06-29T23:54:29.207Z,68.00
2023-06-29T23:57:16.498Z,68.01
2023-06-29T23:59:55.871Z,68.00
